Terminal Aerodrome Forecast
Issued by NWS

Home | Current Version | Previous Version | Text Only | Print | Product List | Glossary On
Versions: 1 2 3 4 5 6 7 8 9 10
556
FTUS45 KABQ 090520
TAFGUP
TAF
KGUP 090520Z 0906/1006 VRB04KT P6SM SKC
     FM092100 03006KT P6SM SKC
     FM100100 VRB04KT P6SM SKC=

USA.gov is the U.S. government's official web portal to all federal, state and local government web resources and services.